sensor_id;sensor_type;location;lat;lon;timestamp;P1;durP1;ratioP1;P2;durP2;ratioP2
64885;SDS011;51514;52.206;5.114;2023-06-22T00:03:17;10.70;;;6.40;;
64885;SDS011;51514;52.206;5.114;2023-06-22T00:05:43;10.18;;;5.80;;
64885;SDS011;51514;52.206;5.114;2023-06-22T00:08:08;15.30;;;6.55;;
64885;SDS011;51514;52.206;5.114;2023-06-22T00:10:33;8.52;;;6.15;;
64885;SDS011;51514;52.206;5.114;2023-06-22T00:12:59;7.85;;;5.97;;
64885;SDS011;51514;52.206;5.114;2023-06-22T00:15:24;7.82;;;6.15;;
64885;SDS011;51514;52.206;5.114;2023-06-22T00:17:50;7.28;;;5.70;;
64885;SDS011;51514;52.206;5.114;2023-06-22T00:20:16;7.07;;;5.90;;
64885;SDS011;51514;52.206;5.114;2023-06-22T00:22:43;8.77;;;6.28;;
64885;SDS011;51514;52.206;5.114;2023-06-22T00:25:09;15.45;;;6.75;;
64885;SDS011;51514;52.206;5.114;2023-06-22T00:27:35;8.55;;;7.28;;
64885;SDS011;51514;52.206;5.114;2023-06-22T00:30:01;10.68;;;6.45;;
64885;SDS011;51514;52.206;5.114;2023-06-22T00:32:27;7.95;;;6.55;;
64885;SDS011;51514;52.206;5.114;2023-06-22T00:34:52;9.70;;;6.90;;
64885;SDS011;51514;52.206;5.114;2023-06-22T00:37:17;8.30;;;6.38;;
64885;SDS011;51514;52.206;5.114;2023-06-22T00:39:43;9.20;;;6.57;;
64885;SDS011;51514;52.206;5.114;2023-06-22T00:42:08;9.20;;;6.88;;
64885;SDS011;51514;52.206;5.114;2023-06-22T00:44:34;13.50;;;7.20;;
64885;SDS011;51514;52.206;5.114;2023-06-22T00:47:00;8.15;;;6.50;;
64885;SDS011;51514;52.206;5.114;2023-06-22T00:49:26;7.25;;;5.50;;
64885;SDS011;51514;52.206;5.114;2023-06-22T00:51:52;6.50;;;5.35;;
64885;SDS011;51514;52.206;5.114;2023-06-22T00:54:17;6.45;;;4.60;;
64885;SDS011;51514;52.206;5.114;2023-06-22T00:56:49;5.57;;;3.70;;
64885;SDS011;51514;52.206;5.114;2023-06-22T00:59:22;4.30;;;3.10;;
64885;SDS011;51514;52.206;5.114;2023-06-22T01:01:49;4.05;;;2.72;;
64885;SDS011;51514;52.206;5.114;2023-06-22T01:04:14;4.40;;;3.13;;
64885;SDS011;51514;52.206;5.114;2023-06-22T01:06:51;5.20;;;3.90;;
64885;SDS011;51514;52.206;5.114;2023-06-22T01:09:27;5.13;;;3.78;;
64885;SDS011;51514;52.206;5.114;2023-06-22T01:12:00;4.25;;;3.20;;
64885;SDS011;51514;52.206;5.114;2023-06-22T01:14:35;6.38;;;2.85;;
64885;SDS011;51514;52.206;5.114;2023-06-22T01:17:07;4.43;;;3.50;;
64885;SDS011;51514;52.206;5.114;2023-06-22T01:19:43;6.00;;;4.18;;
64885;SDS011;51514;52.206;5.114;2023-06-22T01:22:12;6.88;;;4.85;;
64885;SDS011;51514;52.206;5.114;2023-06-22T01:27:15;6.63;;;5.93;;
64885;SDS011;51514;52.206;5.114;2023-06-22T01:29:50;8.63;;;6.22;;
64885;SDS011;51514;52.206;5.114;2023-06-22T01:32:17;8.15;;;6.13;;
64885;SDS011;51514;52.206;5.114;2023-06-22T01:34:44;8.68;;;5.70;;
64885;SDS011;51514;52.206;5.114;2023-06-22T01:37:11;8.88;;;6.82;;
64885;SDS011;51514;52.206;5.114;2023-06-22T01:39:37;9.02;;;6.22;;
64885;SDS011;51514;52.206;5.114;2023-06-22T01:42:03;8.73;;;5.05;;
64885;SDS011;51514;52.206;5.114;2023-06-22T01:44:30;7.13;;;5.70;;
64885;SDS011;51514;52.206;5.114;2023-06-22T01:46:55;11.75;;;6.35;;
64885;SDS011;51514;52.206;5.114;2023-06-22T01:49:21;7.72;;;6.07;;
64885;SDS011;51514;52.206;5.114;2023-06-22T01:51:47;12.75;;;8.25;;
64885;SDS011;51514;52.206;5.114;2023-06-22T01:54:13;10.90;;;8.88;;
64885;SDS011;51514;52.206;5.114;2023-06-22T01:56:38;12.18;;;7.60;;
64885;SDS011;51514;52.206;5.114;2023-06-22T02:01:48;8.40;;;6.07;;
64885;SDS011;51514;52.206;5.114;2023-06-22T02:04:21;7.90;;;6.60;;
64885;SDS011;51514;52.206;5.114;2023-06-22T02:06:53;10.38;;;8.02;;
64885;SDS011;51514;52.206;5.114;2023-06-22T02:09:23;11.55;;;9.05;;
64885;SDS011;51514;52.206;5.114;2023-06-22T02:11:53;13.25;;;8.20;;
64885;SDS011;51514;52.206;5.114;2023-06-22T02:14:22;12.80;;;8.55;;
64885;SDS011;51514;52.206;5.114;2023-06-22T02:16:49;13.88;;;8.50;;
64885;SDS011;51514;52.206;5.114;2023-06-22T02:19:16;11.25;;;8.32;;
64885;SDS011;51514;52.206;5.114;2023-06-22T02:21:43;12.65;;;9.85;;
64885;SDS011;51514;52.206;5.114;2023-06-22T02:24:10;15.13;;;10.18;;
64885;SDS011;51514;52.206;5.114;2023-06-22T02:26:35;13.60;;;10.02;;
64885;SDS011;51514;52.206;5.114;2023-06-22T02:29:03;14.57;;;9.65;;
64885;SDS011;51514;52.206;5.114;2023-06-22T02:31:28;16.27;;;10.98;;
64885;SDS011;51514;52.206;5.114;2023-06-22T02:33:58;13.43;;;11.30;;
64885;SDS011;51514;52.206;5.114;2023-06-22T02:36:24;15.75;;;11.60;;
64885;SDS011;51514;52.206;5.114;2023-06-22T02:38:52;10.55;;;6.88;;
64885;SDS011;51514;52.206;5.114;2023-06-22T02:41:18;7.68;;;6.05;;
64885;SDS011;51514;52.206;5.114;2023-06-22T02:43:46;7.97;;;5.88;;
64885;SDS011;51514;52.206;5.114;2023-06-22T02:46:12;13.35;;;9.50;;
64885;SDS011;51514;52.206;5.114;2023-06-22T02:48:38;13.68;;;11.38;;
64885;SDS011;51514;52.206;5.114;2023-06-22T02:51:07;13.93;;;11.90;;
64885;SDS011;51514;52.206;5.114;2023-06-22T02:53:32;16.95;;;12.93;;
64885;SDS011;51514;52.206;5.114;2023-06-22T02:55:58;19.55;;;12.85;;
64885;SDS011;51514;52.206;5.114;2023-06-22T02:58:23;17.92;;;13.93;;
64885;SDS011;51514;52.206;5.114;2023-06-22T03:00:49;17.55;;;13.50;;
64885;SDS011;51514;52.206;5.114;2023-06-22T03:03:18;20.40;;;13.00;;
64885;SDS011;51514;52.206;5.114;2023-06-22T03:05:43;17.17;;;13.13;;
64885;SDS011;51514;52.206;5.114;2023-06-22T03:08:09;17.92;;;12.25;;
64885;SDS011;51514;52.206;5.114;2023-06-22T03:10:34;20.38;;;13.05;;
64885;SDS011;51514;52.206;5.114;2023-06-22T03:12:59;19.67;;;12.95;;
64885;SDS011;51514;52.206;5.114;2023-06-22T03:15:25;16.75;;;12.45;;
64885;SDS011;51514;52.206;5.114;2023-06-22T03:17:51;18.67;;;12.93;;
64885;SDS011;51514;52.206;5.114;2023-06-22T03:20:16;19.67;;;14.93;;
64885;SDS011;51514;52.206;5.114;2023-06-22T03:22:41;17.75;;;12.25;;
64885;SDS011;51514;52.206;5.114;2023-06-22T03:25:08;16.80;;;12.77;;
64885;SDS011;51514;52.206;5.114;2023-06-22T03:27:42;17.55;;;12.75;;
64885;SDS011;51514;52.206;5.114;2023-06-22T03:30:10;14.60;;;12.52;;
64885;SDS011;51514;52.206;5.114;2023-06-22T03:32:36;17.95;;;12.30;;
64885;SDS011;51514;52.206;5.114;2023-06-22T03:35:02;15.73;;;12.00;;
64885;SDS011;51514;52.206;5.114;2023-06-22T03:37:28;15.90;;;12.35;;
64885;SDS011;51514;52.206;5.114;2023-06-22T03:39:54;12.82;;;9.85;;
64885;SDS011;51514;52.206;5.114;2023-06-22T03:42:19;14.07;;;9.57;;
64885;SDS011;51514;52.206;5.114;2023-06-22T03:44:45;11.75;;;8.60;;
64885;SDS011;51514;52.206;5.114;2023-06-22T03:47:10;9.43;;;6.53;;
64885;SDS011;51514;52.206;5.114;2023-06-22T03:49:36;6.55;;;5.30;;
64885;SDS011;51514;52.206;5.114;2023-06-22T03:52:02;5.18;;;3.75;;
64885;SDS011;51514;52.206;5.114;2023-06-22T03:54:28;4.10;;;2.10;;
64885;SDS011;51514;52.206;5.114;2023-06-22T03:56:54;4.60;;;2.80;;
64885;SDS011;51514;52.206;5.114;2023-06-22T03:59:21;4.05;;;2.90;;
64885;SDS011;51514;52.206;5.114;2023-06-22T04:01:46;5.68;;;3.90;;
64885;SDS011;51514;52.206;5.114;2023-06-22T04:04:11;5.28;;;4.10;;
64885;SDS011;51514;52.206;5.114;2023-06-22T04:06:37;8.60;;;4.72;;
64885;SDS011;51514;52.206;5.114;2023-06-22T04:09:03;7.50;;;5.43;;
64885;SDS011;51514;52.206;5.114;2023-06-22T04:11:28;6.03;;;4.80;;
64885;SDS011;51514;52.206;5.114;2023-06-22T04:13:54;6.50;;;5.07;;
64885;SDS011;51514;52.206;5.114;2023-06-22T04:16:20;10.30;;;8.38;;
64885;SDS011;51514;52.206;5.114;2023-06-22T04:18:45;12.80;;;8.82;;
64885;SDS011;51514;52.206;5.114;2023-06-22T04:21:11;15.60;;;10.77;;
64885;SDS011;51514;52.206;5.114;2023-06-22T04:23:36;16.08;;;11.32;;
64885;SDS011;51514;52.206;5.114;2023-06-22T04:26:01;20.50;;;14.38;;
64885;SDS011;51514;52.206;5.114;2023-06-22T04:28:27;24.50;;;16.92;;
64885;SDS011;51514;52.206;5.114;2023-06-22T04:30:52;24.65;;;18.25;;
64885;SDS011;51514;52.206;5.114;2023-06-22T04:33:18;22.98;;;17.23;;
64885;SDS011;51514;52.206;5.114;2023-06-22T04:35:46;22.40;;;16.73;;
64885;SDS011;51514;52.206;5.114;2023-06-22T04:38:12;24.37;;;18.57;;
64885;SDS011;51514;52.206;5.114;2023-06-22T04:40:38;26.30;;;18.80;;
64885;SDS011;51514;52.206;5.114;2023-06-22T04:43:04;28.10;;;20.02;;
64885;SDS011;51514;52.206;5.114;2023-06-22T04:45:31;28.80;;;19.05;;
64885;SDS011;51514;52.206;5.114;2023-06-22T04:47:56;27.10;;;19.92;;
64885;SDS011;51514;52.206;5.114;2023-06-22T04:50:22;26.48;;;18.25;;
64885;SDS011;51514;52.206;5.114;2023-06-22T04:52:48;27.98;;;19.60;;
64885;SDS011;51514;52.206;5.114;2023-06-22T04:55:14;26.13;;;19.42;;
64885;SDS011;51514;52.206;5.114;2023-06-22T04:57:45;25.85;;;19.95;;
64885;SDS011;51514;52.206;5.114;2023-06-22T05:00:13;27.05;;;21.10;;
64885;SDS011;51514;52.206;5.114;2023-06-22T05:02:45;25.13;;;19.17;;
64885;SDS011;51514;52.206;5.114;2023-06-22T05:05:12;27.30;;;20.30;;
64885;SDS011;51514;52.206;5.114;2023-06-22T05:07:45;29.23;;;19.80;;
64885;SDS011;51514;52.206;5.114;2023-06-22T05:10:13;26.35;;;20.65;;
64885;SDS011;51514;52.206;5.114;2023-06-22T05:12:39;33.67;;;22.60;;
64885;SDS011;51514;52.206;5.114;2023-06-22T05:15:08;32.05;;;23.20;;
64885;SDS011;51514;52.206;5.114;2023-06-22T05:17:34;32.67;;;23.67;;
64885;SDS011;51514;52.206;5.114;2023-06-22T05:20:00;26.80;;;21.08;;
64885;SDS011;51514;52.206;5.114;2023-06-22T05:22:26;30.00;;;23.23;;
64885;SDS011;51514;52.206;5.114;2023-06-22T05:24:51;30.02;;;23.13;;
64885;SDS011;51514;52.206;5.114;2023-06-22T05:27:17;30.08;;;22.30;;
64885;SDS011;51514;52.206;5.114;2023-06-22T05:29:42;33.20;;;23.95;;
64885;SDS011;51514;52.206;5.114;2023-06-22T05:32:08;34.30;;;24.05;;
64885;SDS011;51514;52.206;5.114;2023-06-22T05:34:33;34.10;;;24.83;;
64885;SDS011;51514;52.206;5.114;2023-06-22T05:36:59;32.63;;;24.00;;
64885;SDS011;51514;52.206;5.114;2023-06-22T05:39:24;35.90;;;25.50;;
64885;SDS011;51514;52.206;5.114;2023-06-22T05:41:53;39.25;;;26.55;;
64885;SDS011;51514;52.206;5.114;2023-06-22T05:44:18;35.22;;;25.25;;
64885;SDS011;51514;52.206;5.114;2023-06-22T05:46:44;33.65;;;26.85;;
64885;SDS011;51514;52.206;5.114;2023-06-22T05:49:11;40.80;;;27.90;;
64885;SDS011;51514;52.206;5.114;2023-06-22T05:51:40;42.47;;;28.98;;
64885;SDS011;51514;52.206;5.114;2023-06-22T05:54:06;37.53;;;28.50;;
64885;SDS011;51514;52.206;5.114;2023-06-22T05:56:33;37.17;;;28.50;;
64885;SDS011;51514;52.206;5.114;2023-06-22T05:58:59;35.85;;;28.08;;
64885;SDS011;51514;52.206;5.114;2023-06-22T06:01:24;38.55;;;29.40;;
64885;SDS011;51514;52.206;5.114;2023-06-22T06:03:51;38.10;;;29.80;;
64885;SDS011;51514;52.206;5.114;2023-06-22T06:06:17;37.47;;;30.25;;
64885;SDS011;51514;52.206;5.114;2023-06-22T06:08:46;41.13;;;32.83;;
64885;SDS011;51514;52.206;5.114;2023-06-22T06:11:11;39.55;;;29.48;;
64885;SDS011;51514;52.206;5.114;2023-06-22T06:13:37;41.35;;;30.73;;
64885;SDS011;51514;52.206;5.114;2023-06-22T06:16:02;40.92;;;31.95;;
64885;SDS011;51514;52.206;5.114;2023-06-22T06:18:28;39.65;;;30.70;;
64885;SDS011;51514;52.206;5.114;2023-06-22T06:20:53;41.67;;;31.98;;
64885;SDS011;51514;52.206;5.114;2023-06-22T06:23:18;44.03;;;33.53;;
64885;SDS011;51514;52.206;5.114;2023-06-22T06:25:44;42.50;;;32.00;;
64885;SDS011;51514;52.206;5.114;2023-06-22T06:28:09;35.97;;;29.05;;
64885;SDS011;51514;52.206;5.114;2023-06-22T06:30:35;40.88;;;31.70;;
64885;SDS011;51514;52.206;5.114;2023-06-22T06:33:02;36.47;;;29.67;;
64885;SDS011;51514;52.206;5.114;2023-06-22T06:35:28;39.13;;;30.15;;
64885;SDS011;51514;52.206;5.114;2023-06-22T06:37:53;35.25;;;29.77;;
64885;SDS011;51514;52.206;5.114;2023-06-22T06:40:18;34.97;;;27.45;;
64885;SDS011;51514;52.206;5.114;2023-06-22T06:42:45;31.77;;;27.67;;
64885;SDS011;51514;52.206;5.114;2023-06-22T06:45:16;32.22;;;27.05;;
64885;SDS011;51514;52.206;5.114;2023-06-22T06:47:43;35.45;;;26.85;;
64885;SDS011;51514;52.206;5.114;2023-06-22T06:50:09;33.03;;;27.85;;
64885;SDS011;51514;52.206;5.114;2023-06-22T06:52:35;34.70;;;25.70;;
64885;SDS011;51514;52.206;5.114;2023-06-22T06:55:01;30.08;;;24.90;;
64885;SDS011;51514;52.206;5.114;2023-06-22T06:57:28;33.42;;;26.98;;
64885;SDS011;51514;52.206;5.114;2023-06-22T06:59:54;31.00;;;24.75;;
64885;SDS011;51514;52.206;5.114;2023-06-22T07:02:21;29.75;;;24.38;;
64885;SDS011;51514;52.206;5.114;2023-06-22T07:04:47;28.45;;;23.13;;
64885;SDS011;51514;52.206;5.114;2023-06-22T07:07:13;28.10;;;24.83;;
64885;SDS011;51514;52.206;5.114;2023-06-22T07:09:38;29.38;;;23.35;;
64885;SDS011;51514;52.206;5.114;2023-06-22T07:12:04;27.80;;;22.23;;
64885;SDS011;51514;52.206;5.114;2023-06-22T07:14:29;27.00;;;22.30;;
64885;SDS011;51514;52.206;5.114;2023-06-22T07:16:56;27.60;;;22.50;;
64885;SDS011;51514;52.206;5.114;2023-06-22T07:19:25;25.75;;;21.48;;
64885;SDS011;51514;52.206;5.114;2023-06-22T07:21:55;27.38;;;22.25;;
64885;SDS011;51514;52.206;5.114;2023-06-22T07:24:20;27.55;;;20.95;;
64885;SDS011;51514;52.206;5.114;2023-06-22T07:26:47;30.55;;;21.27;;
64885;SDS011;51514;52.206;5.114;2023-06-22T07:29:14;23.55;;;19.80;;
64885;SDS011;51514;52.206;5.114;2023-06-22T07:31:40;25.27;;;20.70;;
64885;SDS011;51514;52.206;5.114;2023-06-22T07:34:06;32.80;;;22.05;;
64885;SDS011;51514;52.206;5.114;2023-06-22T07:36:31;25.75;;;21.05;;
64885;SDS011;51514;52.206;5.114;2023-06-22T07:38:57;24.80;;;20.05;;
64885;SDS011;51514;52.206;5.114;2023-06-22T07:41:22;20.80;;;18.52;;
64885;SDS011;51514;52.206;5.114;2023-06-22T07:43:47;27.98;;;20.65;;
64885;SDS011;51514;52.206;5.114;2023-06-22T07:46:13;26.27;;;20.88;;
64885;SDS011;51514;52.206;5.114;2023-06-22T07:48:38;27.00;;;21.90;;
64885;SDS011;51514;52.206;5.114;2023-06-22T07:51:04;26.05;;;20.90;;
64885;SDS011;51514;52.206;5.114;2023-06-22T07:53:30;24.52;;;21.13;;
64885;SDS011;51514;52.206;5.114;2023-06-22T07:55:56;24.05;;;19.48;;
64885;SDS011;51514;52.206;5.114;2023-06-22T07:58:21;26.15;;;20.40;;
64885;SDS011;51514;52.206;5.114;2023-06-22T08:00:46;25.00;;;20.48;;
64885;SDS011;51514;52.206;5.114;2023-06-22T08:03:14;28.05;;;21.45;;
64885;SDS011;51514;52.206;5.114;2023-06-22T08:05:39;24.42;;;19.67;;
64885;SDS011;51514;52.206;5.114;2023-06-22T08:08:04;23.75;;;19.80;;
64885;SDS011;51514;52.206;5.114;2023-06-22T08:10:30;21.95;;;19.52;;
64885;SDS011;51514;52.206;5.114;2023-06-22T08:12:55;23.48;;;19.13;;
64885;SDS011;51514;52.206;5.114;2023-06-22T08:15:20;24.30;;;19.88;;
64885;SDS011;51514;52.206;5.114;2023-06-22T08:17:47;23.40;;;17.65;;
64885;SDS011;51514;52.206;5.114;2023-06-22T08:20:12;23.15;;;18.80;;
64885;SDS011;51514;52.206;5.114;2023-06-22T08:22:38;20.67;;;17.80;;
64885;SDS011;51514;52.206;5.114;2023-06-22T08:25:07;21.10;;;17.00;;
64885;SDS011;51514;52.206;5.114;2023-06-22T08:27:33;22.63;;;18.55;;
64885;SDS011;51514;52.206;5.114;2023-06-22T08:29:59;19.67;;;16.10;;
64885;SDS011;51514;52.206;5.114;2023-06-22T08:32:27;21.42;;;17.25;;
64885;SDS011;51514;52.206;5.114;2023-06-22T08:34:54;22.40;;;17.35;;
64885;SDS011;51514;52.206;5.114;2023-06-22T08:37:20;20.33;;;15.88;;
64885;SDS011;51514;52.206;5.114;2023-06-22T08:39:46;20.45;;;16.45;;
64885;SDS011;51514;52.206;5.114;2023-06-22T08:42:12;19.45;;;14.80;;
64885;SDS011;51514;52.206;5.114;2023-06-22T08:44:37;19.83;;;16.98;;
64885;SDS011;51514;52.206;5.114;2023-06-22T08:47:03;17.55;;;15.15;;
64885;SDS011;51514;52.206;5.114;2023-06-22T08:49:28;17.42;;;15.40;;
64885;SDS011;51514;52.206;5.114;2023-06-22T08:51:54;20.42;;;16.15;;
64885;SDS011;51514;52.206;5.114;2023-06-22T08:54:21;16.70;;;14.05;;
64885;SDS011;51514;52.206;5.114;2023-06-22T08:56:47;15.40;;;13.73;;
64885;SDS011;51514;52.206;5.114;2023-06-22T08:59:12;19.52;;;15.27;;
64885;SDS011;51514;52.206;5.114;2023-06-22T09:01:38;16.40;;;14.13;;
64885;SDS011;51514;52.206;5.114;2023-06-22T09:04:03;16.52;;;13.68;;
64885;SDS011;51514;52.206;5.114;2023-06-22T09:06:31;14.98;;;12.70;;
64885;SDS011;51514;52.206;5.114;2023-06-22T09:08:57;15.15;;;12.52;;
64885;SDS011;51514;52.206;5.114;2023-06-22T09:11:24;15.18;;;13.57;;
64885;SDS011;51514;52.206;5.114;2023-06-22T09:13:50;13.13;;;11.00;;
64885;SDS011;51514;52.206;5.114;2023-06-22T09:16:15;13.55;;;10.38;;
64885;SDS011;51514;52.206;5.114;2023-06-22T09:18:41;18.45;;;13.15;;
64885;SDS011;51514;52.206;5.114;2023-06-22T09:21:06;15.55;;;12.55;;
64885;SDS011;51514;52.206;5.114;2023-06-22T09:23:32;14.02;;;10.52;;
64885;SDS011;51514;52.206;5.114;2023-06-22T09:25:57;14.10;;;11.30;;
64885;SDS011;51514;52.206;5.114;2023-06-22T09:28:22;12.43;;;9.73;;
64885;SDS011;51514;52.206;5.114;2023-06-22T09:30:48;13.73;;;9.02;;
64885;SDS011;51514;52.206;5.114;2023-06-22T09:33:13;10.38;;;8.50;;
64885;SDS011;51514;52.206;5.114;2023-06-22T09:35:38;9.73;;;7.10;;
64885;SDS011;51514;52.206;5.114;2023-06-22T09:38:04;10.15;;;7.80;;
64885;SDS011;51514;52.206;5.114;2023-06-22T09:40:29;13.27;;;8.27;;
64885;SDS011;51514;52.206;5.114;2023-06-22T09:42:55;10.05;;;8.57;;
64885;SDS011;51514;52.206;5.114;2023-06-22T09:45:20;14.77;;;9.82;;
64885;SDS011;51514;52.206;5.114;2023-06-22T09:47:45;13.13;;;9.60;;
64885;SDS011;51514;52.206;5.114;2023-06-22T09:50:11;11.23;;;7.95;;
64885;SDS011;51514;52.206;5.114;2023-06-22T09:52:36;12.20;;;8.80;;
64885;SDS011;51514;52.206;5.114;2023-06-22T09:55:02;14.88;;;10.15;;
64885;SDS011;51514;52.206;5.114;2023-06-22T09:57:28;12.63;;;8.73;;
64885;SDS011;51514;52.206;5.114;2023-06-22T09:59:54;12.20;;;8.32;;
64885;SDS011;51514;52.206;5.114;2023-06-22T10:02:20;12.13;;;8.90;;
64885;SDS011;51514;52.206;5.114;2023-06-22T10:04:45;11.82;;;8.38;;
64885;SDS011;51514;52.206;5.114;2023-06-22T10:07:10;12.25;;;9.52;;
64885;SDS011;51514;52.206;5.114;2023-06-22T10:09:36;14.00;;;8.98;;
64885;SDS011;51514;52.206;5.114;2023-06-22T10:12:01;13.05;;;8.65;;
64885;SDS011;51514;52.206;5.114;2023-06-22T10:14:27;13.35;;;8.90;;
64885;SDS011;51514;52.206;5.114;2023-06-22T10:16:54;14.73;;;7.97;;
64885;SDS011;51514;52.206;5.114;2023-06-22T10:19:20;12.05;;;8.60;;
64885;SDS011;51514;52.206;5.114;2023-06-22T10:21:45;10.18;;;7.30;;
64885;SDS011;51514;52.206;5.114;2023-06-22T10:24:10;10.55;;;8.48;;
64885;SDS011;51514;52.206;5.114;2023-06-22T10:26:36;11.45;;;8.07;;
64885;SDS011;51514;52.206;5.114;2023-06-22T10:29:02;9.88;;;7.65;;
64885;SDS011;51514;52.206;5.114;2023-06-22T10:31:28;11.80;;;7.65;;
64885;SDS011;51514;52.206;5.114;2023-06-22T10:33:54;11.38;;;8.30;;
64885;SDS011;51514;52.206;5.114;2023-06-22T10:36:20;10.32;;;7.85;;
64885;SDS011;51514;52.206;5.114;2023-06-22T10:38:46;13.60;;;7.80;;
64885;SDS011;51514;52.206;5.114;2023-06-22T10:41:12;12.68;;;8.27;;
64885;SDS011;51514;52.206;5.114;2023-06-22T10:43:37;11.32;;;7.20;;
64885;SDS011;51514;52.206;5.114;2023-06-22T10:46:03;11.95;;;8.60;;
64885;SDS011;51514;52.206;5.114;2023-06-22T10:48:28;11.88;;;8.05;;
64885;SDS011;51514;52.206;5.114;2023-06-22T10:50:53;11.25;;;8.45;;
64885;SDS011;51514;52.206;5.114;2023-06-22T10:53:19;10.02;;;7.47;;
64885;SDS011;51514;52.206;5.114;2023-06-22T10:55:45;10.48;;;8.20;;
64885;SDS011;51514;52.206;5.114;2023-06-22T10:58:10;11.00;;;8.18;;
64885;SDS011;51514;52.206;5.114;2023-06-22T11:00:35;12.73;;;7.95;;
64885;SDS011;51514;52.206;5.114;2023-06-22T11:03:01;16.02;;;8.15;;
64885;SDS011;51514;52.206;5.114;2023-06-22T11:05:26;16.30;;;10.43;;
64885;SDS011;51514;52.206;5.114;2023-06-22T11:07:51;13.25;;;8.27;;
64885;SDS011;51514;52.206;5.114;2023-06-22T11:10:17;11.02;;;6.93;;
64885;SDS011;51514;52.206;5.114;2023-06-22T11:12:42;12.13;;;7.22;;
64885;SDS011;51514;52.206;5.114;2023-06-22T11:15:08;10.98;;;7.70;;
64885;SDS011;51514;52.206;5.114;2023-06-22T11:17:35;12.60;;;8.35;;
64885;SDS011;51514;52.206;5.114;2023-06-22T11:20:01;13.00;;;7.90;;
64885;SDS011;51514;52.206;5.114;2023-06-22T11:22:29;13.18;;;8.30;;
64885;SDS011;51514;52.206;5.114;2023-06-22T11:24:58;11.55;;;7.55;;
64885;SDS011;51514;52.206;5.114;2023-06-22T11:27:23;8.90;;;7.53;;
64885;SDS011;51514;52.206;5.114;2023-06-22T11:29:49;13.10;;;7.35;;
64885;SDS011;51514;52.206;5.114;2023-06-22T11:32:14;9.75;;;7.65;;
64885;SDS011;51514;52.206;5.114;2023-06-22T11:34:40;9.60;;;7.90;;
64885;SDS011;51514;52.206;5.114;2023-06-22T11:37:05;10.75;;;8.02;;
64885;SDS011;51514;52.206;5.114;2023-06-22T11:39:31;11.48;;;7.55;;
64885;SDS011;51514;52.206;5.114;2023-06-22T11:41:56;13.38;;;8.60;;
64885;SDS011;51514;52.206;5.114;2023-06-22T11:44:21;14.48;;;9.32;;
64885;SDS011;51514;52.206;5.114;2023-06-22T11:46:47;10.68;;;8.50;;
64885;SDS011;51514;52.206;5.114;2023-06-22T11:49:13;12.80;;;8.63;;
64885;SDS011;51514;52.206;5.114;2023-06-22T11:51:38;12.95;;;8.25;;
64885;SDS011;51514;52.206;5.114;2023-06-22T11:54:04;12.82;;;7.75;;
64885;SDS011;51514;52.206;5.114;2023-06-22T11:56:29;11.90;;;7.75;;
64885;SDS011;51514;52.206;5.114;2023-06-22T11:58:55;13.32;;;8.52;;
64885;SDS011;51514;52.206;5.114;2023-06-22T12:01:20;12.52;;;8.75;;
64885;SDS011;51514;52.206;5.114;2023-06-22T12:03:46;12.23;;;10.07;;
64885;SDS011;51514;52.206;5.114;2023-06-22T12:06:11;13.25;;;9.68;;
64885;SDS011;51514;52.206;5.114;2023-06-22T12:08:37;15.52;;;10.45;;
64885;SDS011;51514;52.206;5.114;2023-06-22T12:11:02;11.85;;;9.30;;
64885;SDS011;51514;52.206;5.114;2023-06-22T12:13:28;14.15;;;11.57;;
64885;SDS011;51514;52.206;5.114;2023-06-22T12:15:53;13.77;;;10.40;;
64885;SDS011;51514;52.206;5.114;2023-06-22T12:18:18;12.60;;;9.68;;
64885;SDS011;51514;52.206;5.114;2023-06-22T12:20:46;13.77;;;9.02;;
64885;SDS011;51514;52.206;5.114;2023-06-22T12:23:11;12.10;;;9.40;;
64885;SDS011;51514;52.206;5.114;2023-06-22T12:25:37;15.50;;;10.65;;
64885;SDS011;51514;52.206;5.114;2023-06-22T12:28:02;14.18;;;11.48;;
64885;SDS011;51514;52.206;5.114;2023-06-22T12:30:29;16.65;;;13.43;;
64885;SDS011;51514;52.206;5.114;2023-06-22T12:32:54;17.77;;;12.77;;
64885;SDS011;51514;52.206;5.114;2023-06-22T12:35:20;17.20;;;13.10;;
64885;SDS011;51514;52.206;5.114;2023-06-22T12:37:46;17.98;;;14.52;;
64885;SDS011;51514;52.206;5.114;2023-06-22T12:40:11;15.27;;;13.68;;
64885;SDS011;51514;52.206;5.114;2023-06-22T12:42:37;17.52;;;13.70;;
64885;SDS011;51514;52.206;5.114;2023-06-22T12:45:02;16.15;;;12.80;;
64885;SDS011;51514;52.206;5.114;2023-06-22T12:47:28;16.63;;;14.38;;
64885;SDS011;51514;52.206;5.114;2023-06-22T12:49:53;18.30;;;13.32;;
64885;SDS011;51514;52.206;5.114;2023-06-22T12:52:18;15.77;;;13.05;;
64885;SDS011;51514;52.206;5.114;2023-06-22T12:54:44;16.77;;;12.85;;
64885;SDS011;51514;52.206;5.114;2023-06-22T12:57:09;17.73;;;12.00;;
64885;SDS011;51514;52.206;5.114;2023-06-22T12:59:34;12.32;;;10.93;;
64885;SDS011;51514;52.206;5.114;2023-06-22T13:02:00;12.25;;;10.60;;
64885;SDS011;51514;52.206;5.114;2023-06-22T13:04:25;12.88;;;10.40;;
64885;SDS011;51514;52.206;5.114;2023-06-22T13:06:51;12.55;;;9.90;;
64885;SDS011;51514;52.206;5.114;2023-06-22T13:09:17;12.77;;;8.85;;
64885;SDS011;51514;52.206;5.114;2023-06-22T13:11:43;10.80;;;8.63;;
64885;SDS011;51514;52.206;5.114;2023-06-22T13:14:09;10.85;;;7.90;;
64885;SDS011;51514;52.206;5.114;2023-06-22T13:16:34;9.05;;;8.00;;
64885;SDS011;51514;52.206;5.114;2023-06-22T13:18:59;10.02;;;7.95;;
64885;SDS011;51514;52.206;5.114;2023-06-22T13:21:25;10.52;;;8.10;;
64885;SDS011;51514;52.206;5.114;2023-06-22T13:23:50;10.85;;;7.90;;
64885;SDS011;51514;52.206;5.114;2023-06-22T13:26:16;11.52;;;7.90;;
64885;SDS011;51514;52.206;5.114;2023-06-22T13:28:41;12.70;;;7.35;;
64885;SDS011;51514;52.206;5.114;2023-06-22T13:31:06;11.55;;;7.82;;
64885;SDS011;51514;52.206;5.114;2023-06-22T13:33:32;12.43;;;7.82;;
64885;SDS011;51514;52.206;5.114;2023-06-22T13:35:57;14.38;;;8.18;;
64885;SDS011;51514;52.206;5.114;2023-06-22T13:38:23;12.50;;;8.57;;
64885;SDS011;51514;52.206;5.114;2023-06-22T13:40:48;12.10;;;8.55;;
64885;SDS011;51514;52.206;5.114;2023-06-22T13:43:14;12.13;;;8.80;;
64885;SDS011;51514;52.206;5.114;2023-06-22T13:45:40;12.60;;;8.20;;
64885;SDS011;51514;52.206;5.114;2023-06-22T13:48:06;13.20;;;8.95;;
64885;SDS011;51514;52.206;5.114;2023-06-22T13:50:32;11.60;;;9.13;;
64885;SDS011;51514;52.206;5.114;2023-06-22T13:52:57;14.32;;;9.80;;
64885;SDS011;51514;52.206;5.114;2023-06-22T13:55:23;12.02;;;9.57;;
64885;SDS011;51514;52.206;5.114;2023-06-22T13:57:48;12.63;;;9.43;;
64885;SDS011;51514;52.206;5.114;2023-06-22T14:00:13;9.93;;;8.85;;
64885;SDS011;51514;52.206;5.114;2023-06-22T14:02:39;12.70;;;9.77;;
64885;SDS011;51514;52.206;5.114;2023-06-22T14:05:06;17.33;;;9.38;;
64885;SDS011;51514;52.206;5.114;2023-06-22T14:07:32;14.25;;;10.52;;
64885;SDS011;51514;52.206;5.114;2023-06-22T14:09:57;15.07;;;11.52;;
64885;SDS011;51514;52.206;5.114;2023-06-22T14:12:23;12.40;;;10.35;;
64885;SDS011;51514;52.206;5.114;2023-06-22T14:14:49;13.88;;;10.85;;
64885;SDS011;51514;52.206;5.114;2023-06-22T14:17:14;14.15;;;10.90;;
64885;SDS011;51514;52.206;5.114;2023-06-22T14:19:40;12.80;;;10.25;;
64885;SDS011;51514;52.206;5.114;2023-06-22T14:22:05;13.43;;;11.43;;
64885;SDS011;51514;52.206;5.114;2023-06-22T14:24:31;15.93;;;12.30;;
64885;SDS011;51514;52.206;5.114;2023-06-22T14:26:56;14.52;;;12.13;;
64885;SDS011;51514;52.206;5.114;2023-06-22T14:29:22;15.25;;;11.90;;
64885;SDS011;51514;52.206;5.114;2023-06-22T14:31:47;15.23;;;12.52;;